»·PEaware :: SKY96 KSBP-KOAR

SKY96 :: KSBP-KOAR

FLIGHT INFORMATION

Flight Status: Arrived
Operator:
Sky High Charters
More flights by this operator :: More flights under this callsign
Pilot: Hendrik S. (17810)
Aircraft: SOCATA TBM-900
(TBM9)
More flights by this aircraft type
Origin: KSBP San Luis Co Regl
United States
Destination: KOAR Marina
United States
More flights between these airports :: More routes between these airports
Route: CREPE3 PRB V248 SARDO ZURET
File this flight plan on PilotEdge
Remarks: SCENARIO 4 part 1
Altitude:
(Current/Filed)
12,000ft
Speed:
(Current/Filed)
280kts
Departed: 09-Mar-19 12:44 PM
Arrived: 09-Mar-19 01:20 PM
Distance/Time
Traveled:
102nm/0:36
Distance/Time
To Go:
Arrived

Flight Plot

Page will automatically refresh every two minutes.

Flight plan parsing failed; only flown route is shown


Map Options




Map Legend


Flown Route
Filed Route
Departure Airport
Arrival Airport
Navaid (VOR, NDB)
Fix

Horizontal Profiles

Position Reports

Time Latitude Longitude Heading Altitude Ground
Speed
09-Mar-19 12:19 35.238484 -120.639989 250 215ft 0kts
09-Mar-19 12:20 35.238484 -120.639989 250 215ft 0kts
09-Mar-19 12:21 35.238484 -120.639989 250 215ft 0kts
09-Mar-19 12:22 35.238484 -120.639989 250 215ft 0kts
09-Mar-19 12:23 35.238484 -120.639989 250 215ft 0kts
09-Mar-19 12:24 35.238484 -120.639989 250 215ft 0kts
09-Mar-19 12:25 35.238484 -120.639989 250 215ft 0kts
09-Mar-19 12:26 35.238484 -120.639989 250 215ft 0kts
09-Mar-19 12:27 35.238484 -120.639989 250 215ft 0kts
09-Mar-19 12:28 35.238484 -120.639989 250 215ft 0kts
09-Mar-19 12:29 35.238484 -120.639989 250 215ft 0kts
09-Mar-19 12:30 35.238484 -120.639989 250 215ft 0kts
09-Mar-19 12:31 35.238484 -120.639989 250 215ft 0kts
09-Mar-19 12:32 35.238484 -120.639989 250 215ft 0kts
09-Mar-19 12:33 35.238484 -120.639989 250 215ft 0kts
09-Mar-19 12:34 35.238484 -120.639989 250 215ft 0kts
09-Mar-19 12:35 35.237949 -120.640078 133 215ft 5kts
09-Mar-19 12:36 35.236295 -120.637291 127 215ft 15kts
09-Mar-19 12:37 35.234190 -120.633569 123 215ft 6kts
09-Mar-19 12:38 35.233218 -120.632305 208 215ft 0kts
09-Mar-19 12:39 35.233218 -120.632305 208 215ft 0kts
09-Mar-19 12:40 35.233218 -120.632305 208 215ft 0kts
09-Mar-19 12:41 35.233218 -120.632305 208 215ft 0kts
09-Mar-19 12:42 35.233217 -120.632306 208 215ft 0kts
09-Mar-19 12:43 35.234873 -120.636600 297 215ft 82kts
09-Mar-19 12:44 35.253258 -120.669188 297 1623ft 124kts
09-Mar-19 12:45 35.270414 -120.705789 305 3323ft 129kts
09-Mar-19 12:46 35.290032 -120.740095 305 4898ft 130kts
09-Mar-19 12:47 35.310546 -120.774430 300 6368ft 132kts
09-Mar-19 12:48 35.330749 -120.807570 301 7731ft 133kts
09-Mar-19 12:49 35.355940 -120.847840 303 8058ft 190kts
09-Mar-19 12:50 35.399875 -120.842444 48 8074ft 232kts
09-Mar-19 12:51 35.443549 -120.803042 29 9471ft 192kts
09-Mar-19 12:52 35.488198 -120.769142 27 10496ft 196kts
09-Mar-19 12:53 35.534608 -120.733457 26 11490ft 208kts
09-Mar-19 12:54 35.580326 -120.698327 26 12023ft 250kts
09-Mar-19 12:55 35.639205 -120.652802 27 12013ft 281kts
09-Mar-19 12:56 35.710205 -120.642128 335 12008ft 263kts
09-Mar-19 12:57 35.777016 -120.668804 335 12002ft 263kts
09-Mar-19 12:58 35.841393 -120.694545 336 12002ft 265kts
09-Mar-19 12:59 35.908881 -120.721544 336 11997ft 265kts
09-Mar-19 13:00 35.975370 -120.748477 335 11985ft 263kts
09-Mar-19 13:01 36.041535 -120.774893 336 11992ft 261kts
09-Mar-19 13:02 36.100770 -120.809897 309 12012ft 249kts
09-Mar-19 13:03 36.146243 -120.867047 309 11991ft 250kts
09-Mar-19 13:04 36.191077 -120.923307 309 11972ft 250kts
09-Mar-19 13:05 36.238160 -120.982474 309 11973ft 256kts
09-Mar-19 13:06 36.284591 -121.040963 309 11964ft 253kts
09-Mar-19 13:07 36.330654 -121.099055 309 11961ft 251kts
09-Mar-19 13:08 36.379583 -121.160946 310 10574ft 281kts
09-Mar-19 13:09 36.429169 -121.223706 311 9069ft 291kts
09-Mar-19 13:10 36.475202 -121.282016 311 7659ft 284kts
09-Mar-19 13:11 36.529212 -121.359292 300 5930ft 213kts
09-Mar-19 13:12 36.559445 -121.413938 300 4455ft 182kts
09-Mar-19 13:13 36.585438 -121.461110 300 4486ft 206kts
09-Mar-19 13:14 36.621314 -121.526002 302 3745ft 232kts
09-Mar-19 13:15 36.655500 -121.588082 303 3058ft 216kts
09-Mar-19 13:16 36.669270 -121.658255 274 1910ft 217kts
09-Mar-19 13:17 36.677363 -121.725558 277 704ft 172kts
09-Mar-19 13:18 36.680008 -121.758758 294 135ft 74kts
09-Mar-19 13:19 36.683344 -121.767117 214 135ft 14kts
09-Mar-19 13:20 36.682082 -121.765907 123 135ft 11kts
09-Mar-19 13:21 36.680077 -121.765259 268 135ft 0kts
09-Mar-19 13:23 36.680077 -121.765259 268 135ft 0kts

Navigation Log

Ident Type
Flight plan parsing failed, navigation log unavailable